Aérodrome :
LOGIN :

S'inscrire | Disclaimer

   EN    FR    IT 

 










Légende :    VFR   VFR Marginal   IFR   IFR Intensif   IFR Très Intensif
Visi : 
Plafond : 
>= 8 km
>= 3000ft
5 à 8 km
1000 à 3000 ft
1500m à 5 km
500 à 1000 ft
800 à 1500m
200 à 500 ft
< 800m
< 200 ft
Symboles :   Orages  Brouillard  Fortes neiges  Fortes précipitations  Vent > 20 kt
SIGMETs :   Divers  Orages  Givrage  Turbulence  Onde Orograph.  Cendres Volcan.







- Altitude de l'aérodrome : 505 ft
- Code IATA : SXB
- Voir les cartes d'approche


LFST - Strasbourg

DERNIER METAR :
  • 291100Z AUTO VRB03KT 9999 FEW045 SCT052 13/02 Q1017 NOSIG

METARs EXPIRÉS :
  • 291030Z AUTO VRB02KT 9999 FEW043 13/02 Q1018 NOSIG
  • 291000Z AUTO VRB04KT 9999 FEW040 13/03 Q1018 NOSIG
  • 290930Z AUTO VRB03KT 9999 FEW034 13/02 Q1018 NOSIG
  • 290900Z AUTO 20003KT 130V260 CAVOK 12/04 Q1018 NOSIG
  • 290830Z AUTO 15003KT 050V210 CAVOK 11/04 Q1018 NOSIG

TAF TAF LFST
Valide du 29 à 06h jusqu'au 30 à 06h UTC


290500Z 2906/3006 20005KT 9999 SCT040
BECMG 2910/2912 01005KT
BECMG 2915/2917 CAVOK
PROB30
TEMPO 3002/3006 4000 BR
Pas de NOTAMs connus pour ce terrain.



MET'MAP, la Météo Aéronautique d'un coup d'oeil ! - Copyright ORBIFLY Décembre 2007 - Disclaimer

ORBIFLY MET'MAP TEAM :

Programmation & Développement : Alexandra Zaïnal
Conception & Développement : Baudouin d'Aumeries
Co-Programmation & Développement : Marc-Olivier Méhu
Soutien technique & logistique : Manuel Goepfert

Contact : metmap@orbifly.com




SOURCES & CREDITS :

   NOAA